Time;durP1;ratioP1;P1;durP2;ratioP2;P2;SDS_P1;SDS_P2;PMS_P1;PMS_P2;Temp;Humidity;BMP_temperature;BMP_pressure;BME280_temperature;BME280_humidity;BME280_pressure;Samples;Min_cycle;Max_cycle;Signal;HPM_P1;HPM_P2
2023/01/16 00:02:05;;;;;;;5.60;3.40;;;5.40;99.90;;;5.29;75.12;99116.69;5110214;28;20211;-66
2023/01/16 00:04:35;;;;;;;4.97;3.43;;;5.40;99.90;;;5.28;75.43;99115.84;5111374;28;20204;-67
2023/01/16 00:07:03;;;;;;;5.07;3.43;;;5.40;99.90;;;5.26;75.51;99117.53;5104105;28;20272;-67
2023/01/16 00:09:32;;;;;;;4.07;3.07;;;5.40;99.90;;;5.26;75.56;99117.53;5103297;28;20604;-67
2023/01/16 00:12:00;;;;;;;6.20;3.27;;;5.30;99.90;;;5.28;75.53;99115.00;5112122;28;20265;-66
2023/01/16 00:14:30;;;;;;;3.97;3.10;;;5.40;99.90;;;5.26;75.56;99104.78;5113581;28;20212;-66
2023/01/16 00:17:00;;;;;;;4.73;2.90;;;5.30;99.90;;;5.25;75.46;99108.19;5114209;28;20252;-68
2023/01/16 00:19:29;;;;;;;4.97;2.83;;;5.30;99.90;;;5.24;75.45;99119.28;5115078;28;20270;-67
2023/01/16 00:21:57;;;;;;;6.43;3.50;;;5.30;99.90;;;5.22;75.43;99120.13;5113943;28;20196;-65
2023/01/16 00:24:26;;;;;;;5.20;2.93;;;5.30;99.90;;;5.19;75.13;99110.81;5111331;28;20258;-67
2023/01/16 00:26:54;;;;;;;4.03;3.00;;;5.30;99.90;;;5.18;75.82;99123.56;5111739;28;20245;-68
2023/01/16 00:29:23;;;;;;;5.17;3.03;;;5.30;99.90;;;5.15;75.65;99123.56;5110276;28;20211;-68
2023/01/16 00:31:51;;;;;;;5.50;3.50;;;5.20;99.90;;;5.12;75.82;99118.47;5114294;28;20639;-65
2023/01/16 00:34:21;;;;;;;4.30;3.17;;;5.20;99.90;;;5.12;75.94;99127.00;5112003;28;20324;-67
2023/01/16 00:36:50;;;;;;;6.10;3.53;;;5.20;99.90;;;5.07;76.34;99129.56;5113768;28;20269;-65
2023/01/16 00:39:18;;;;;;;5.77;3.73;;;5.10;99.90;;;5.05;75.90;99135.53;5111293;28;20204;-65
2023/01/16 00:41:47;;;;;;;6.93;3.90;;;5.10;99.90;;;5.05;76.10;99127.88;5113012;28;20253;-66
2023/01/16 00:44:16;;;;;;;5.07;2.97;;;5.10;99.90;;;5.02;76.07;99133.84;5110672;27;20232;-67
2023/01/16 00:46:44;;;;;;;4.17;2.90;;;5.10;99.90;;;5.00;76.15;99129.59;5110068;28;20211;-66
2023/01/16 00:49:12;;;;;;;4.77;3.13;;;5.10;99.90;;;4.99;76.37;99141.50;5113198;28;20251;-66
2023/01/16 00:51:42;;;;;;;4.57;3.20;;;5.00;99.90;;;4.97;75.94;99138.13;5111136;28;20257;-66
2023/01/16 00:54:11;;;;;;;5.10;2.73;;;5.00;99.90;;;4.98;76.25;99138.97;5113284;28;20253;-67
2023/01/16 00:56:40;;;;;;;5.53;2.90;;;5.10;99.90;;;4.95;76.56;99136.41;5107581;28;20629;-66
2023/01/16 00:59:08;;;;;;;5.03;3.10;;;5.00;99.90;;;4.93;76.29;99133.84;5109995;28;20261;-67
2023/01/16 01:01:37;;;;;;;4.30;3.03;;;4.90;99.90;;;4.93;76.57;99138.13;5107898;28;20669;-67
2023/01/16 01:04:06;;;;;;;4.80;3.20;;;5.00;99.90;;;4.91;76.98;99138.13;5099117;28;20218;-66
2023/01/16 01:06:35;;;;;;;4.13;3.13;;;5.00;99.90;;;4.90;76.91;99138.13;5109937;28;20597;-65
2023/01/16 01:09:05;;;;;;;4.40;3.23;;;4.90;99.90;;;4.89;76.99;99144.09;5112175;28;20203;-65
2023/01/16 01:11:33;;;;;;;4.77;3.00;;;4.90;99.90;;;4.88;77.12;99129.63;5112230;28;20192;-67
2023/01/16 01:14:02;;;;;;;4.67;3.40;;;4.90;99.90;;;4.85;76.88;99141.53;5110515;28;20257;-66
2023/01/16 01:16:30;;;;;;;5.40;3.40;;;4.90;99.90;;;4.83;77.14;99138.16;5112692;28;20253;-67
2023/01/16 01:18:59;;;;;;;6.20;3.90;;;4.90;99.90;;;4.82;77.34;99144.13;5107018;27;20744;-66
2023/01/16 01:21:27;;;;;;;4.93;3.47;;;4.90;99.90;;;4.79;77.50;99133.94;5110367;28;20219;-66
2023/01/16 01:23:57;;;;;;;5.50;3.20;;;4.90;99.90;;;4.76;77.54;99126.28;5112736;28;20204;-67
2023/01/16 01:26:26;;;;;;;8.73;3.40;;;4.90;99.90;;;4.76;77.71;99127.97;5108674;28;20709;-66
2023/01/16 01:28:55;;;;;;;5.27;3.20;;;4.80;99.90;;;4.74;77.31;99127.13;5112334;28;20219;-65
2023/01/16 01:31:24;;;;;;;5.50;3.73;;;4.80;99.90;;;4.73;77.99;99136.47;5110346;28;20223;-66
2023/01/16 01:33:52;;;;;;;5.57;3.47;;;4.70;99.90;;;4.69;77.34;99116.94;5083144;28;20203;-65
2023/01/16 01:36:21;;;;;;;5.00;3.37;;;4.80;99.90;;;4.69;77.48;99127.13;5109807;28;20233;-65
2023/01/16 01:38:50;;;;;;;5.77;3.50;;;4.80;99.90;;;4.70;77.37;99130.53;5111334;28;20249;-66
2023/01/16 01:41:18;;;;;;;4.63;3.07;;;4.70;99.90;;;4.69;77.66;99116.09;5110826;28;20223;-67
2023/01/16 01:43:50;;;;;;;5.47;3.47;;;4.80;99.90;;;4.70;77.49;99112.69;5109995;28;20400;-65
2023/01/16 01:46:25;;;;;;;4.10;3.20;;;4.70;99.90;;;4.65;77.36;99120.34;5111861;28;20219;-66
2023/01/16 01:48:58;;;;;;;5.40;3.47;;;4.70;99.90;;;4.64;77.08;99111.00;5113016;28;20207;-67
2023/01/16 01:51:31;;;;;;;6.87;3.30;;;4.70;99.90;;;4.65;77.46;99114.41;5112059;28;20568;-67
2023/01/16 01:54:06;;;;;;;4.97;3.40;;;4.70;99.90;;;4.62;77.39;99109.31;5108655;28;20664;-67
2023/01/16 01:56:40;;;;;;;4.97;3.00;;;4.70;99.90;;;4.61;77.43;99111.00;5110735;28;20196;-65
2023/01/16 01:59:17;;;;;;;4.50;3.37;;;4.70;99.90;;;4.59;77.09;99112.69;5109366;28;20654;-65
2023/01/16 02:01:45;;;;;;;4.47;3.53;;;4.70;99.90;;;4.55;77.22;99116.13;5112667;28;20231;-65
2023/01/16 02:04:20;;;;;;;5.47;3.40;;;4.70;99.90;;;4.52;76.93;99105.91;5107703;28;20200;-67
2023/01/16 02:06:53;;;;;;;5.33;3.30;;;4.60;99.90;;;4.50;77.23;99111.03;5107929;28;20207;-66
2023/01/16 02:09:24;;;;;;;4.87;3.73;;;4.60;99.90;;;4.50;77.10;99107.63;5111594;28;20664;-66
2023/01/16 02:12:00;;;;;;;4.67;3.43;;;4.60;99.90;;;4.47;77.49;99115.28;5111001;28;20272;-69
2023/01/16 02:14:34;;;;;;;4.13;3.40;;;4.60;99.90;;;4.46;77.25;99111.91;5103952;28;20245;-67
2023/01/16 02:20:14;;;;;;;4.70;3.70;;;4.50;99.90;;;4.44;76.89;99107.63;5111792;28;20262;-66
2023/01/16 02:23:31;;;;;;;5.37;3.70;;;4.50;99.90;;;4.39;77.41;99105.09;5111385;28;20200;-65
2023/01/16 02:26:52;;;;;;;4.77;3.17;;;4.50;99.90;;;4.36;77.51;99105.94;5110520;28;20205;-66
2023/01/16 02:30:05;;;;;;;4.90;3.63;;;4.40;99.90;;;4.31;77.47;99102.56;5047957;28;20212;-67
2023/01/16 02:32:55;;;;;;;7.53;3.43;;;4.40;99.90;;;4.33;77.44;99100.84;5108650;28;20203;-66
2023/01/16 02:35:41;;;;;;;5.70;3.97;;;4.40;99.90;;;4.28;78.02;99099.19;5110714;28;20281;-66
2023/01/16 02:38:17;;;;;;;7.07;4.10;;;4.30;99.90;;;4.26;77.69;99100.88;5105813;28;20209;-67
2023/01/16 02:41:03;;;;;;;5.83;4.03;;;4.30;99.90;;;4.24;78.36;99111.06;5109101;28;20304;-66
2023/01/16 02:43:41;;;;;;;4.83;3.80;;;4.30;99.90;;;4.22;78.46;99100.03;5104144;28;20656;-66
2023/01/16 02:46:21;;;;;;;5.63;3.73;;;4.30;99.90;;;4.18;78.05;99098.31;5108059;28;20195;-67
2023/01/16 02:48:59;;;;;;;6.50;3.97;;;4.30;99.90;;;4.15;78.27;99095.78;5098183;28;20200;-67
2023/01/16 02:51:38;;;;;;;4.30;3.30;;;4.20;99.90;;;4.14;78.69;99089.00;5110915;28;20644;-66
2023/01/16 02:54:13;;;;;;;7.27;3.97;;;4.20;99.90;;;4.12;78.54;99103.41;5106670;28;20217;-66
2023/01/16 02:56:47;;;;;;;5.87;3.80;;;4.20;99.90;;;4.09;78.36;99095.81;5109669;28;20203;-65
2023/01/16 02:59:18;;;;;;;5.83;3.63;;;4.20;99.90;;;4.05;79.21;99089.84;5102341;28;20606;-66
2023/01/16 03:01:48;;;;;;;5.43;3.83;;;4.10;99.90;;;4.01;78.68;99097.47;5108183;28;20223;-66
2023/01/16 03:04:53;;;;;;;7.17;3.63;;;4.10;99.90;;;3.98;79.28;99098.34;5107641;28;20203;-66
2023/01/16 03:07:49;;;;;;;6.27;4.27;;;4.00;99.90;;;3.94;79.72;99091.56;5024625;28;20253;-66
2023/01/16 03:11:06;;;;;;;5.53;3.37;;;4.10;99.90;;;3.90;79.59;99089.00;5011780;28;20207;-66
2023/01/16 03:14:03;;;;;;;6.03;4.27;;;4.00;99.90;;;3.85;79.00;99089.84;5097123;28;20203;-66
2023/01/16 03:16:45;;;;;;;7.77;4.47;;;4.00;99.90;;;3.82;79.24;99087.28;5098917;28;20207;-67
2023/01/16 03:19:26;;;;;;;5.63;3.63;;;4.00;99.90;;;3.84;79.77;99090.69;5102215;28;20260;-67
2023/01/16 03:22:11;;;;;;;6.33;3.77;;;3.90;99.90;;;3.82;79.14;99094.09;5100361;28;20208;-65
2023/01/16 03:25:00;;;;;;;6.20;4.33;;;3.90;99.90;;;3.75;79.95;99085.59;5105226;28;20602;-66
2023/01/16 03:27:43;;;;;;;6.70;4.73;;;3.90;99.90;;;3.70;79.58;99089.00;5106210;28;20236;-66
2023/01/16 03:30:19;;;;;;;6.03;4.47;;;3.90;99.90;;;3.69;80.13;99095.78;5103184;28;20200;-66
2023/01/16 03:32:54;;;;;;;5.80;4.03;;;3.80;99.90;;;3.67;79.70;99097.47;5110340;28;20616;-67
2023/01/16 03:35:29;;;;;;;6.60;4.77;;;3.80;99.90;;;3.65;79.37;99104.28;5105005;28;20768;-67
2023/01/16 03:38:05;;;;;;;6.13;4.47;;;3.80;99.90;;;3.61;79.97;99089.84;5110112;28;20203;-66
2023/01/16 03:40:40;;;;;;;6.53;5.10;;;3.80;99.90;;;3.60;80.37;99103.41;5110546;28;20191;-64
2023/01/16 03:43:16;;;;;;;6.50;4.60;;;3.80;99.90;;;3.59;79.90;99106.81;5105383;28;20219;-66
2023/01/16 03:45:51;;;;;;;6.10;4.60;;;3.70;99.90;;;3.57;79.80;99099.19;5110921;28;20203;-66
2023/01/16 03:48:24;;;;;;;5.83;4.60;;;3.60;99.90;;;3.55;79.95;99098.31;5113726;28;20205;-67
2023/01/16 03:50:59;;;;;;;7.10;5.10;;;3.70;99.90;;;3.52;79.76;99095.75;5113457;28;20210;-66
2023/01/16 03:53:36;;;;;;;7.23;5.30;;;3.60;99.90;;;3.51;80.27;99101.72;5113641;27;20233;-66
2023/01/16 03:56:14;;;;;;;6.83;4.60;;;3.60;99.90;;;3.49;80.02;99105.94;5105306;28;20278;-66
2023/01/16 03:58:53;;;;;;;7.13;5.10;;;3.60;99.90;;;3.47;80.37;99099.16;5105217;28;20203;-65
2023/01/16 04:01:30;;;;;;;7.50;4.93;;;3.60;99.90;;;3.42;80.68;99099.13;5114544;28;20240;-66
2023/01/16 04:04:04;;;;;;;7.30;5.10;;;3.60;99.90;;;3.37;79.83;99091.50;5110607;28;20215;-66
2023/01/16 04:06:42;;;;;;;6.40;4.93;;;3.50;99.90;;;3.34;80.00;99096.56;5113113;28;20196;-65
2023/01/16 04:09:19;;;;;;;6.50;4.63;;;3.50;99.90;;;3.31;80.71;99094.00;5110234;28;20204;-66
2023/01/16 04:11:51;;;;;;;7.37;4.83;;;3.50;99.90;;;3.27;80.78;99097.41;5114181;28;20380;-66
2023/01/16 04:14:22;;;;;;;6.67;4.90;;;3.40;99.90;;;3.25;80.92;99090.63;5105875;28;20212;-66
2023/01/16 04:16:51;;;;;;;7.20;5.10;;;3.40;99.90;;;3.24;81.07;99097.44;5113345;28;20231;-65
2023/01/16 04:19:23;;;;;;;6.60;4.80;;;3.50;99.90;;;3.22;81.15;99098.25;5113033;28;20236;-65
2023/01/16 04:21:52;;;;;;;7.80;4.93;;;3.40;99.90;;;3.22;81.00;99088.91;5111032;28;20256;-66
2023/01/16 04:24:21;;;;;;;6.83;5.33;;;3.30;99.90;;;3.23;81.19;99084.66;5112361;28;20216;-67
2023/01/16 04:26:51;;;;;;;7.33;5.00;;;3.30;99.90;;;3.22;80.99;99095.72;5112673;27;20208;-67
2023/01/16 04:29:19;;;;;;;7.63;5.10;;;3.30;99.90;;;3.19;80.62;99091.44;5107732;28;20257;-67
2023/01/16 04:31:48;;;;;;;7.67;4.97;;;3.30;99.90;;;3.21;80.39;99092.31;5112951;28;20663;-67
2023/01/16 04:34:16;;;;;;;8.47;5.17;;;3.30;99.90;;;3.19;80.02;99091.44;5104388;28;20290;-67
2023/01/16 04:36:44;;;;;;;8.60;5.60;;;3.30;99.90;;;3.16;80.88;99083.81;5111621;28;20235;-68
2023/01/16 04:39:13;;;;;;;7.40;5.30;;;3.30;99.90;;;3.14;80.03;99100.78;5110246;28;20613;-63
2023/01/16 04:41:46;;;;;;;7.30;4.90;;;3.30;99.90;;;3.13;80.27;99109.28;5099111;28;20228;-66
2023/01/16 04:44:15;;;;;;;6.93;5.07;;;3.30;99.90;;;3.14;80.38;99101.63;5110810;28;20208;-66
2023/01/16 04:46:44;;;;;;;6.70;5.27;;;3.20;99.90;;;3.15;80.81;99097.38;5110310;28;20204;-66
2023/01/16 04:49:12;;;;;;;7.13;4.90;;;3.30;99.90;;;3.17;80.25;99113.53;5113317;28;20693;-66
2023/01/16 04:51:41;;;;;;;8.87;5.10;;;3.30;99.90;;;3.16;80.55;99116.88;5112847;28;20208;-66
2023/01/16 04:54:15;;;;;;;7.10;4.40;;;3.30;99.90;;;3.15;80.27;99110.09;5113251;28;20203;-66
2023/01/16 04:56:45;;;;;;;6.23;5.20;;;3.30;99.90;;;3.15;80.42;99118.59;5109775;28;20229;-67
2023/01/16 04:59:17;;;;;;;7.77;5.30;;;3.30;99.90;;;3.14;80.94;99116.06;5106505;28;20211;-68
2023/01/16 05:01:46;;;;;;;6.23;4.80;;;3.20;99.90;;;3.10;80.23;99112.66;5112056;28;20223;-67
2023/01/16 05:04:17;;;;;;;7.13;4.87;;;3.20;99.90;;;3.09;80.22;99113.50;5109393;28;20343;-64
2023/01/16 05:06:45;;;;;;;6.97;4.93;;;3.20;99.90;;;3.09;80.68;99115.16;5105492;28;20196;-67
2023/01/16 05:09:14;;;;;;;7.47;4.87;;;3.20;99.90;;;3.07;80.61;99105.00;5101677;28;20245;-68
2023/01/16 05:11:44;;;;;;;8.70;5.00;;;3.20;99.90;;;3.06;80.06;99098.22;5103784;27;20656;-67
2023/01/16 05:14:12;;;;;;;7.43;4.80;;;3.20;99.90;;;3.04;80.48;99104.13;5111219;28;20212;-66
2023/01/16 05:16:42;;;;;;;7.30;5.00;;;3.20;99.90;;;3.02;80.39;99103.25;5111087;28;20208;-68
2023/01/16 05:19:11;;;;;;;6.93;4.60;;;3.20;99.90;;;3.03;79.87;99097.34;5111676;28;20278;-67
2023/01/16 05:21:39;;;;;;;5.87;4.53;;;3.20;99.90;;;3.04;79.35;99106.69;5112227;28;20204;-67
2023/01/16 05:24:08;;;;;;;6.33;4.63;;;3.20;99.90;;;3.04;80.13;99099.03;5112019;28;20691;-66
2023/01/16 05:26:37;;;;;;;6.53;4.37;;;3.20;99.90;;;3.05;80.13;99090.56;5106714;28;20515;-67
2023/01/16 05:29:07;;;;;;;6.43;4.70;;;3.20;99.90;;;3.04;79.16;99083.78;5106800;28;20204;-66
2023/01/16 05:31:35;;;;;;;6.87;4.70;;;3.10;99.90;;;3.04;78.88;99091.41;5105708;28;20231;-67
2023/01/16 05:34:04;;;;;;;6.73;4.60;;;3.20;99.90;;;3.03;79.17;99090.56;5101468;28;20482;-65
2023/01/16 05:36:32;;;;;;;7.10;4.77;;;3.20;99.90;;;3.03;79.54;99093.09;5107092;28;20204;-66
2023/01/16 05:39:01;;;;;;;6.50;4.43;;;3.20;99.90;;;3.04;79.59;99092.25;5101692;28;20262;-67
2023/01/16 05:41:29;;;;;;;6.77;4.17;;;3.10;99.90;;;3.03;79.10;99093.09;5109557;28;20294;-67
2023/01/16 05:43:58;;;;;;;8.67;4.30;;;3.20;99.90;;;3.03;78.78;99095.66;5090189;28;20247;-68
2023/01/16 05:46:28;;;;;;;5.13;4.27;;;3.10;99.90;;;3.01;79.13;99094.78;5109195;28;20265;-67
2023/01/16 05:48:56;;;;;;;5.77;4.50;;;3.10;99.90;;;3.00;78.95;99093.09;5109695;28;20204;-65
2023/01/16 05:51:25;;;;;;;5.47;4.27;;;3.10;99.90;;;3.00;78.66;99088.00;5110315;28;20263;-66
2023/01/16 05:53:53;;;;;;;5.13;4.33;;;3.10;99.90;;;3.01;78.67;99089.69;5110757;28;20204;-66
2023/01/16 05:56:23;;;;;;;5.10;4.10;;;3.20;99.90;;;3.00;79.09;99087.16;5112308;28;20625;-66
2023/01/16 05:58:51;;;;;;;6.30;3.73;;;3.10;99.90;;;2.99;78.52;99072.75;5105353;28;20208;-66
2023/01/16 06:01:21;;;;;;;5.80;4.20;;;3.10;99.90;;;2.94;78.51;99074.41;5103716;28;20652;-67
2023/01/16 06:03:50;;;;;;;6.20;4.37;;;3.10;99.90;;;2.96;78.89;99080.38;5112510;28;20216;-65
2023/01/16 06:06:19;;;;;;;7.87;4.30;;;3.10;99.90;;;2.94;78.72;99070.16;5111513;28;20663;-68
2023/01/16 06:08:48;;;;;;;5.17;4.20;;;3.10;99.90;;;2.94;77.88;99061.69;5104176;28;20580;-66
2023/01/16 06:11:16;;;;;;;6.17;4.43;;;3.10;99.90;;;2.95;79.12;99059.16;5112787;28;20261;-67
2023/01/16 06:13:47;;;;;;;5.00;4.00;;;3.10;99.90;;;2.93;78.38;99057.44;5112191;28;20226;-67
2023/01/16 06:16:15;;;;;;;5.73;4.23;;;3.10;99.90;;;2.92;78.54;99055.75;5107039;28;20424;-66
2023/01/16 06:18:44;;;;;;;5.93;3.97;;;3.00;99.90;;;2.90;77.89;99050.66;5108031;28;20242;-66
2023/01/16 06:21:14;;;;;;;6.10;3.97;;;3.00;99.90;;;2.88;78.18;99062.53;5100051;28;20199;-65
2023/01/16 06:23:43;;;;;;;6.13;4.00;;;3.00;99.90;;;2.88;77.77;99073.56;5100380;28;20295;-66
2023/01/16 06:26:11;;;;;;;5.70;4.37;;;3.00;99.90;;;2.89;78.43;99075.25;5106534;28;20214;-66
2023/01/16 06:28:40;;;;;;;6.03;3.73;;;3.00;99.90;;;2.90;78.49;99076.09;5110079;28;20220;-65
2023/01/16 06:31:09;;;;;;;4.73;3.70;;;3.00;99.90;;;2.92;77.93;99071.03;5106754;28;20238;-66
2023/01/16 06:33:38;;;;;;;7.30;3.80;;;3.00;99.90;;;2.91;78.50;99072.72;5102537;28;20661;-65
2023/01/16 06:36:07;;;;;;;5.50;3.93;;;3.00;99.90;;;2.91;78.49;99072.72;5107899;28;20212;-68
2023/01/16 06:38:37;;;;;;;6.87;4.23;;;3.00;99.90;;;2.90;78.04;99076.94;5103826;28;20257;-67
2023/01/16 06:41:06;;;;;;;5.60;3.90;;;3.10;99.90;;;2.92;78.35;99065.94;5103556;28;20564;-67
2023/01/16 06:43:34;;;;;;;6.27;4.27;;;3.00;99.90;;;2.91;78.10;99067.63;5095997;28;20232;-72
2023/01/16 06:46:03;;;;;;;8.03;4.23;;;3.10;99.90;;;2.93;77.63;99075.25;5099460;28;20204;-67
2023/01/16 06:48:32;;;;;;;5.93;3.73;;;3.00;99.90;;;2.91;77.62;99072.72;5104649;28;20227;-67
2023/01/16 06:51:00;;;;;;;5.30;3.70;;;3.00;99.90;;;2.95;77.69;99076.97;5101126;28;20238;-68
2023/01/16 06:53:29;;;;;;;5.60;3.43;;;3.10;99.90;;;2.96;77.64;99073.56;5109308;28;20208;-64
2023/01/16 06:55:58;;;;;;;5.83;3.67;;;3.10;99.90;;;2.96;77.86;99071.03;5105003;28;20209;-64
2023/01/16 06:58:27;;;;;;;6.70;4.17;;;3.10;99.90;;;2.98;76.98;99073.56;5094091;28;20216;-67
2023/01/16 07:00:55;;;;;;;8.43;3.50;;;3.10;99.90;;;2.99;77.70;99085.47;5103682;28;20246;-65
2023/01/16 07:03:24;;;;;;;6.67;3.60;;;3.10;99.90;;;3.01;76.59;99069.34;5097905;28;20242;-67
2023/01/16 07:05:52;;;;;;;6.07;3.80;;;3.10;99.90;;;3.04;77.08;99073.59;5108788;28;20256;-66
2023/01/16 07:08:21;;;;;;;4.37;3.67;;;3.20;99.90;;;3.04;77.17;99064.25;5109640;28;20257;-66
2023/01/16 07:10:49;;;;;;;6.60;3.50;;;3.10;99.90;;;3.05;76.39;99070.19;5109755;28;20594;-64
2023/01/16 07:13:26;;;;;;;5.00;3.70;;;3.20;99.90;;;3.09;76.03;99061.72;5110240;28;20249;-64
2023/01/16 07:24:39;;;;;;;4.53;3.10;;;3.30;99.90;;;3.33;76.25;99077.06;5039651;28;20638;-67
2023/01/16 07:27:09;;;;;;;5.37;3.50;;;3.40;99.90;;;3.36;74.96;99068.59;5051312;28;20252;-66
2023/01/16 07:29:39;;;;;;;5.17;3.23;;;3.40;99.90;;;3.39;75.51;99072.00;5081798;28;20211;-66
2023/01/16 07:32:07;;;;;;;6.90;3.70;;;3.50;99.90;;;3.44;75.27;99073.69;5110400;28;20239;-67
2023/01/16 07:34:36;;;;;;;5.27;3.20;;;3.50;99.90;;;3.46;75.09;99066.88;5114155;28;20208;-67
2023/01/16 07:37:07;;;;;;;6.50;4.20;;;3.60;99.90;;;3.52;74.97;99072.00;5109058;28;20204;-66
2023/01/16 07:39:35;;;;;;;5.60;3.50;;;3.60;99.90;;;3.54;74.08;99070.31;5109882;28;20204;-67
2023/01/16 07:42:05;;;;;;;4.57;3.23;;;3.60;99.90;;;3.55;74.31;99061.81;5104719;28;20693;-65
2023/01/16 07:44:33;;;;;;;6.03;3.53;;;3.60;99.90;;;3.59;74.01;99063.50;5105322;28;20708;-68
2023/01/16 07:47:03;;;;;;;4.83;3.47;;;3.70;99.90;;;3.67;74.14;99066.91;5112028;28;20245;-66
2023/01/16 07:49:32;;;;;;;6.47;3.60;;;3.80;99.90;;;3.75;73.38;99064.34;5119001;28;20207;-71
2023/01/16 07:52:01;;;;;;;6.33;4.30;;;3.90;99.90;;;3.88;73.91;99056.72;5118922;28;20204;-70
2023/01/16 07:54:29;;;;;;;5.30;3.37;;;4.00;99.90;;;3.99;72.47;99055.88;5111114;28;20252;-70
2023/01/16 07:56:57;;;;;;;7.37;3.80;;;4.10;99.90;;;4.04;72.46;99052.44;5111285;28;20577;-67
2023/01/16 07:59:26;;;;;;;7.87;3.70;;;4.20;99.90;;;4.09;72.41;99044.81;5107440;28;20211;-70
2023/01/16 08:01:54;;;;;;;5.57;3.43;;;4.20;99.90;;;4.21;72.18;99056.69;5104873;28;20622;-66
2023/01/16 08:04:24;;;;;;;5.53;3.60;;;4.30;99.90;;;4.34;71.88;99048.16;5101965;27;20297;-66
2023/01/16 08:06:52;;;;;;;6.93;3.63;;;4.40;99.90;;;4.41;71.06;99046.44;5102145;28;20256;-66
2023/01/16 08:09:21;;;;;;;6.50;3.50;;;4.50;99.90;;;4.51;70.52;99048.94;5100007;28;20580;-68
2023/01/16 08:11:49;;;;;;;5.70;3.63;;;4.60;99.90;;;4.58;70.39;99044.69;5099885;28;20208;-67
2023/01/16 08:14:18;;;;;;;5.50;3.80;;;4.60;99.90;;;4.57;70.22;99037.91;5105623;28;20227;-66
2023/01/16 08:16:46;;;;;;;5.37;3.60;;;4.60;99.90;;;4.57;70.13;99037.91;5106717;28;20640;-67
2023/01/16 08:19:15;;;;;;;4.90;3.17;;;4.60;99.90;;;4.54;69.77;99043.00;5105222;28;20231;-65
2023/01/16 08:21:47;;;;;;;6.47;3.97;;;4.60;99.90;;;4.50;69.57;99049.81;5111255;28;21757;-65
2023/01/16 08:24:15;;;;;;;5.83;3.97;;;4.60;99.90;;;4.47;69.36;99042.16;5104405;28;20220;-66
2023/01/16 08:26:44;;;;;;;5.70;4.10;;;4.60;99.90;;;4.46;69.54;99042.19;5106178;28;20200;-66
2023/01/16 08:29:12;;;;;;;7.30;4.27;;;4.60;99.90;;;4.49;69.80;99045.56;5100498;28;20232;-65
2023/01/16 08:31:41;;;;;;;5.37;3.87;;;4.60;99.90;;;4.53;70.11;99041.31;5100588;28;20713;-67
2023/01/16 08:34:10;;;;;;;6.47;3.67;;;4.70;99.90;;;4.58;69.63;99044.69;5105769;28;20210;-65
2023/01/16 08:36:38;;;;;;;8.47;3.93;;;4.70;99.90;;;4.62;69.27;99040.41;5103835;28;20261;-66
2023/01/16 08:39:10;;;;;;;7.97;4.50;;;4.70;99.90;;;4.68;69.43;99040.41;5083739;28;20250;-66
2023/01/16 08:52:47;;;;;;;7.33;4.57;;;5.10;99.90;;;5.12;68.34;99037.63;5099489;28;20284;-67
2023/01/16 08:55:17;;;;;;;5.87;4.27;;;5.30;99.90;;;5.28;68.57;99035.81;5104715;28;20200;-67
2023/01/16 08:57:45;;;;;;;8.27;4.17;;;5.40;99.90;;;5.52;67.56;99028.00;5105310;28;20204;-68
2023/01/16 09:00:15;;;;;;;5.30;3.83;;;5.70;99.90;;;5.80;66.71;99023.50;5103230;28;20304;-65
2023/01/16 09:02:45;;;;;;;7.27;4.40;;;6.00;99.90;;;6.09;65.86;99016.47;5102662;28;20410;-66
2023/01/16 09:05:14;;;;;;;7.40;4.47;;;6.20;99.90;;;6.45;64.97;99016.06;5097861;28;20232;-67
2023/01/16 09:07:42;;;;;;;6.73;4.27;;;6.60;99.90;;;6.89;63.35;99003.59;5097672;28;20591;-65
2023/01/16 09:10:12;;;;;;;5.77;3.63;;;6.90;99.90;;;7.34;61.36;99004.63;5100526;28;20280;-65
2023/01/16 09:15:29;;;;;;;6.67;4.10;;;8.00;99.90;;;8.29;58.92;98999.59;5105475;28;20241;-68
2023/01/16 09:17:58;;;;;;;7.03;4.17;;;8.30;99.90;;;8.50;58.15;98990.66;5098611;28;20276;-66
2023/01/16 09:20:26;;;;;;;5.87;4.07;;;8.60;99.90;;;8.63;57.09;99000.66;5101216;28;20209;-68
2023/01/16 09:22:59;;;;;;;5.97;3.97;;;8.70;99.90;;;8.62;55.94;98988.69;5101318;28;20664;-66
2023/01/16 09:25:28;;;;;;;5.20;3.87;;;8.60;99.90;;;8.68;56.25;98985.13;5093570;28;20224;-66
2023/01/16 09:27:58;;;;;;;8.73;5.00;;;8.80;99.90;;;8.69;55.19;98984.28;5097562;28;20208;-71
2023/01/16 09:30:27;;;;;;;8.37;4.10;;;8.80;99.90;;;8.59;55.34;98991.31;5099329;28;20240;-66
2023/01/16 09:32:55;;;;;;;5.87;4.10;;;8.70;99.90;;;8.54;54.96;98982.84;5101010;28;20213;-68
2023/01/16 09:35:24;;;;;;;9.20;4.07;;;8.60;99.90;;;8.45;55.25;98988.19;5100008;28;20231;-67
2023/01/16 09:37:52;;;;;;;6.13;4.53;;;8.50;99.90;;;8.34;55.40;98979.81;5098520;28;20211;-66
2023/01/16 09:40:23;;;;;;;5.67;3.90;;;8.30;99.90;;;8.24;55.55;98977.41;5101487;28;20487;-68
2023/01/16 09:45:56;;;;;;;8.70;5.07;;;8.40;99.90;;;8.69;56.34;98972.28;5103400;28;20230;-68
2023/01/16 09:48:30;;;;;;;8.60;4.10;;;8.80;99.90;;;8.97;55.49;98971.66;5099954;28;20657;-65
2023/01/16 09:51:03;;;;;;;7.00;4.50;;;9.10;99.90;;;9.21;54.40;98972.00;5106697;28;20196;-67
2023/01/16 09:59:30;;;;;;;6.63;5.17;;;9.70;99.90;;;9.81;52.17;98966.25;5105428;28;20241;-64
2023/01/16 10:02:11;;;;;;;6.57;4.50;;;9.80;99.90;;;9.72;52.73;98966.44;5104098;28;20874;-66
2023/01/16 10:04:39;;;;;;;8.37;5.20;;;9.70;99.90;;;9.62;52.22;98956.41;5105135;28;20217;-66
2023/01/16 10:07:51;;;;;;;6.63;5.60;;;9.50;99.90;;;9.36;52.67;98962.19;5101308;28;20257;-66
2023/01/16 10:10:37;;;;;;;10.07;5.77;;;9.40;99.90;;;9.21;53.72;98954.00;5105694;28;20204;-66
2023/01/16 10:13:40;;;;;;;9.17;5.27;;;9.20;99.90;;;9.16;54.41;98949.81;5111379;28;20215;-66
2023/01/16 10:16:23;;;;;;;8.23;4.70;;;9.20;99.90;;;9.46;54.24;98946.53;5097956;28;20196;-64
2023/01/16 10:19:01;;;;;;;9.17;6.17;;;9.50;99.90;;;9.84;53.31;98955.88;5103050;28;20228;-64
2023/01/16 10:21:52;;;;;;;9.50;5.40;;;9.90;99.90;;;10.09;52.47;98944.03;5098964;28;20203;-66
2023/01/16 10:24:32;;;;;;;8.47;5.53;;;10.10;99.90;;;10.37;51.01;98936.41;5097298;28;20713;-67
2023/01/16 10:27:11;;;;;;;7.40;5.13;;;10.30;99.90;;;10.64;50.66;98932.19;5097912;28;20242;-68
2023/01/16 10:29:44;;;;;;;7.20;5.07;;;10.60;99.90;;;10.68;49.82;98916.63;5104212;28;20276;-68
2023/01/16 10:32:21;;;;;;;9.40;5.30;;;10.70;99.90;;;10.56;49.62;98918.69;5107910;28;20692;-66
2023/01/16 10:35:00;;;;;;;9.13;5.80;;;10.60;99.90;;;10.39;50.15;98914.03;5109270;28;20191;-67
2023/01/16 10:37:29;;;;;;;6.73;5.37;;;10.40;99.90;;;10.21;50.27;98906.81;5109776;28;20235;-66
2023/01/16 10:39:59;;;;;;;8.10;5.27;;;10.20;99.90;;;10.05;50.80;98902.97;5108983;28;20211;-67
2023/01/16 10:51:01;;;;;;;10.07;6.33;;;9.10;99.90;;;8.71;53.83;98893.47;5110206;28;20200;-66
2023/01/16 10:53:31;;;;;;;7.93;5.47;;;8.70;99.90;;;8.36;53.74;98889.09;5108078;28;20657;-67
2023/01/16 10:56:00;;;;;;;9.03;5.17;;;8.40;99.90;;;8.02;54.75;98885.50;5109317;28;20199;-67
2023/01/16 10:58:32;;;;;;;6.40;5.07;;;8.00;99.90;;;7.67;56.07;98872.50;5107589;28;20207;-66
2023/01/16 11:01:04;;;;;;;7.90;5.33;;;7.70;99.90;;;7.40;57.19;98872.97;5107315;28;20223;-66
2023/01/16 11:03:41;;;;;;;8.13;5.60;;;7.50;99.90;;;7.15;58.29;98862.34;5096909;28;20225;-65
2023/01/16 11:06:16;;;;;;;6.10;4.23;;;7.20;99.90;;;6.95;58.40;98868.59;5103196;28;20216;-66
2023/01/16 11:08:48;;;;;;;13.90;5.00;;;7.00;99.90;;;6.77;58.93;98859.53;5109545;28;20195;-66
2023/01/16 11:20:18;;;;;;;8.97;5.60;;;6.50;99.90;;;6.39;61.14;98861.78;5101762;28;20249;-66
2023/01/16 11:22:58;;;;;;;7.33;5.53;;;6.40;99.90;;;6.33;61.17;98852.44;5102739;28;20195;-66
2023/01/16 11:25:28;;;;;;;5.77;5.00;;;6.40;99.90;;;6.28;61.65;98852.53;5105194;28;20292;-65
2023/01/16 11:28:02;;;;;;;6.77;5.27;;;6.30;99.90;;;6.20;62.17;98843.28;5106904;28;20647;-66
2023/01/16 11:30:37;;;;;;;6.93;4.80;;;6.30;99.90;;;6.14;62.41;98856.13;5107659;28;20620;-67
2023/01/16 11:33:13;;;;;;;8.77;5.50;;;6.20;99.90;;;6.05;62.63;98849.44;5104370;28;20227;-65
2023/01/16 11:35:51;;;;;;;11.27;5.07;;;6.20;99.90;;;6.01;63.34;98843.50;5100050;28;20690;-65
2023/01/16 11:38:21;;;;;;;8.87;5.33;;;6.10;99.90;;;5.95;63.58;98837.63;5106159;28;20196;-66
2023/01/16 11:40:52;;;;;;;8.90;5.00;;;6.10;99.90;;;5.91;63.64;98838.50;5109632;28;20710;-64
2023/01/16 11:46:38;;;;;;;10.70;6.37;;;6.00;99.90;;;5.75;64.70;98828.47;5098798;28;20936;-65
2023/01/16 11:49:18;;;;;;;11.97;6.20;;;5.90;99.90;;;5.64;65.40;98822.63;5099242;28;20243;-66
2023/01/16 11:51:54;;;;;;;12.77;6.73;;;5.80;99.90;;;5.57;65.77;98801.41;5105678;28;20739;-67